createdAt,value
2024-02-26T00:02:20.795Z,100054.84
2024-02-26T00:04:48.569Z,100045.84
2024-02-26T00:07:15.558Z,100057.69
2024-02-26T00:09:42.564Z,100056.84
2024-02-26T00:12:09.695Z,100050.88
2024-02-26T00:14:36.907Z,100050.03
2024-02-26T00:17:03.975Z,100058.69
2024-02-26T00:19:31.169Z,100051.53
2024-02-26T00:21:58.300Z,100054.66
2024-02-26T00:24:26.814Z,100050.81
2024-02-26T00:26:56.068Z,100050.81
2024-02-26T00:29:23.542Z,100047.66
2024-02-26T00:31:50.564Z,100031.84
2024-02-26T00:34:17.737Z,100050.16
2024-02-26T00:36:45.040Z,100051.16
2024-02-26T00:39:13.188Z,100036.19
2024-02-26T00:41:42.242Z,100049.69
2024-02-26T00:44:09.535Z,100044.19
2024-02-26T00:46:37.003Z,100032.41
2024-02-26T00:49:04.543Z,100039.50
2024-02-26T00:51:32.436Z,100033.34
2024-02-26T00:53:59.626Z,100039.97
2024-02-26T00:56:26.902Z,100038.31
2024-02-26T00:58:53.981Z,100047.28
2024-02-26T01:01:21.300Z,100032.94
2024-02-26T01:03:48.634Z,100038.75
2024-02-26T01:06:15.762Z,100034.88
2024-02-26T01:08:43.241Z,100033.06
2024-02-26T01:11:29.569Z,100033.41
2024-02-26T01:13:58.102Z,100038.09
2024-02-26T01:16:25.494Z,100036.09
2024-02-26T01:18:52.719Z,100044.91
2024-02-26T01:21:19.971Z,100030.56
2024-02-26T01:23:47.051Z,100038.22
2024-02-26T01:26:14.612Z,100044.53
2024-02-26T01:28:41.654Z,100033.59
2024-02-26T01:31:10.772Z,100029.59
2024-02-26T01:33:38.194Z,100035.28
2024-02-26T01:36:05.816Z,100033.16
2024-02-26T01:38:33.089Z,100036.75
2024-02-26T01:41:00.177Z,100024.63
2024-02-26T01:43:27.324Z,100030.97
2024-02-26T01:45:54.983Z,100026.47
2024-02-26T01:48:22.543Z,100029.59
2024-02-26T01:50:49.795Z,100037.78
2024-02-26T01:53:18.676Z,100017.00
2024-02-26T01:55:46.296Z,100018.53
2024-02-26T01:58:14.445Z,100025.53
2024-02-26T02:00:41.820Z,100023.03
2024-02-26T02:03:09.163Z,100014.22
2024-02-26T02:05:43.237Z,100020.38
2024-02-26T02:08:12.574Z,100015.03
2024-02-26T02:10:40.726Z,100017.22
2024-02-26T02:13:08.542Z,100014.09
2024-02-26T02:15:36.398Z,100023.09
2024-02-26T02:18:04.201Z,100022.44
2024-02-26T02:20:35.334Z,100009.31
2024-02-26T02:23:04.407Z,100013.63
2024-02-26T02:25:31.453Z,100005.16
2024-02-26T02:27:59.062Z,100019.78
2024-02-26T02:30:29.388Z,100011.97
2024-02-26T02:32:57.003Z,100002.50
2024-02-26T02:35:24.488Z,100012.66
2024-02-26T02:37:53.827Z,100020.00
2024-02-26T02:40:20.943Z,100009.16
2024-02-26T02:42:48.320Z,99999.38
2024-02-26T02:45:15.457Z,100003.53
2024-02-26T02:47:42.744Z,100000.88
2024-02-26T02:50:10.333Z,100015.38
2024-02-26T02:52:37.447Z,99999.44
2024-02-26T02:55:05.101Z,100013.41
2024-02-26T02:57:33.449Z,100007.78
2024-02-26T03:00:01.096Z,99996.66
2024-02-26T03:02:28.170Z,100006.50
2024-02-26T03:04:55.278Z,99996.66
2024-02-26T03:07:22.399Z,99997.97
2024-02-26T03:09:49.543Z,100010.28
2024-02-26T03:12:16.704Z,99997.97
2024-02-26T03:14:44.028Z,100010.47
2024-02-26T03:17:11.014Z,99997.50
2024-02-26T03:19:38.170Z,100001.63
2024-02-26T03:22:05.486Z,100002.00
2024-02-26T03:24:32.648Z,99999.31
2024-02-26T03:26:59.685Z,99989.03
2024-02-26T03:29:26.923Z,99989.03
2024-02-26T03:31:53.895Z,99997.16
2024-02-26T03:36:48.121Z,99989.34
2024-02-26T03:39:15.179Z,99994.84
2024-02-26T03:41:42.634Z,99994.84
2024-02-26T03:44:09.679Z,99994.03
2024-02-26T03:46:36.948Z,99995.03
2024-02-26T03:49:04.419Z,99993.38
2024-02-26T03:51:32.849Z,99987.09
2024-02-26T03:54:00.159Z,99988.41
2024-02-26T03:56:28.808Z,99995.03
2024-02-26T03:58:55.856Z,99994.19
2024-02-26T04:01:23.006Z,99995.56
2024-02-26T04:03:50.035Z,99993.91
2024-02-26T04:06:19.398Z,100001.25
2024-02-26T04:08:46.778Z,99992.59
2024-02-26T04:11:14.533Z,99997.91
2024-02-26T04:13:41.589Z,99997.91
2024-02-26T04:16:08.639Z,99986.63
2024-02-26T04:18:35.762Z,99994.25
2024-02-26T04:21:04.163Z,100005.72
2024-02-26T04:23:32.237Z,99994.06
2024-02-26T04:25:59.662Z,99991.41
2024-02-26T04:28:27.618Z,99992.59
2024-02-26T04:30:54.740Z,99999.94
2024-02-26T04:33:22.099Z,99990.28
2024-02-26T04:35:49.457Z,99995.97
2024-02-26T04:38:16.563Z,100010.28
2024-02-26T04:40:43.616Z,99994.97
2024-02-26T04:43:10.764Z,100005.94
2024-02-26T04:45:37.842Z,99990.97
2024-02-26T04:48:05.370Z,99989.97
2024-02-26T04:50:32.478Z,100001.47
2024-02-26T04:52:59.507Z,100004.47
2024-02-26T04:55:26.679Z,99998.97
2024-02-26T04:57:53.793Z,99993.66
2024-02-26T05:00:21.154Z,99993.66
2024-02-26T05:02:48.450Z,99994.47
2024-02-26T05:05:15.623Z,99995.13
2024-02-26T05:07:46.528Z,99989.63
2024-02-26T05:10:13.859Z,99991.63
2024-02-26T05:12:43.827Z,99988.16
2024-02-26T05:15:12.033Z,99983.94
2024-02-26T05:17:39.229Z,99992.91
2024-02-26T05:20:09.224Z,99980.75
2024-02-26T05:22:36.413Z,99992.53
2024-02-26T05:25:04.405Z,99987.75
2024-02-26T05:27:31.861Z,99991.19
2024-02-26T05:29:59.052Z,99991.16
2024-02-26T05:32:26.179Z,99992.47
2024-02-26T05:34:53.365Z,99986.31
2024-02-26T05:37:20.422Z,99991.81
2024-02-26T05:39:47.588Z,99987.31
2024-02-26T05:42:14.671Z,99985.13
2024-02-26T05:44:41.814Z,99983.28
2024-02-26T05:47:08.931Z,99987.13
2024-02-26T05:49:36.124Z,99988.63
2024-02-26T05:52:03.434Z,99999.75
2024-02-26T05:54:30.614Z,99993.75
2024-02-26T05:56:57.660Z,100001.88
2024-02-26T05:59:25.147Z,100006.66
2024-02-26T06:01:52.184Z,100009.47
2024-02-26T06:04:19.584Z,99985.59
2024-02-26T06:06:47.092Z,100001.59
2024-02-26T06:09:14.341Z,99999.59
2024-02-26T06:11:41.554Z,100004.56
2024-02-26T06:14:08.815Z,99998.75
2024-02-26T06:16:36.114Z,99998.09
2024-02-26T06:19:03.538Z,100005.63
2024-02-26T06:21:31.046Z,100004.63
2024-02-26T06:23:58.154Z,100011.44
2024-02-26T06:26:25.231Z,99983.88
2024-02-26T06:28:53.698Z,99993.06
2024-02-26T06:31:21.784Z,99989.09
2024-02-26T06:33:49.488Z,99994.44
2024-02-26T06:36:19.472Z,99998.75
2024-02-26T06:38:46.637Z,99999.75
2024-02-26T06:41:13.756Z,100008.34
2024-02-26T06:43:40.739Z,100011.66
2024-02-26T06:46:08.555Z,100007.63
2024-02-26T06:48:38.169Z,100009.09
2024-02-26T06:51:05.493Z,100007.28
2024-02-26T06:53:32.524Z,100006.28
2024-02-26T06:55:59.771Z,99994.47
2024-02-26T06:58:27.042Z,100002.94
2024-02-26T07:00:54.190Z,100002.44
2024-02-26T07:03:21.574Z,99980.38
2024-02-26T07:05:49.037Z,100003.47
2024-02-26T07:08:16.486Z,99989.78
2024-02-26T07:10:44.805Z,99998.69
2024-02-26T07:13:11.858Z,99990.28
2024-02-26T07:15:38.921Z,99992.31
2024-02-26T07:18:06.421Z,99984.44
2024-02-26T07:20:33.573Z,99983.50
2024-02-26T07:23:00.827Z,99989.13
2024-02-26T07:25:27.913Z,99979.28
2024-02-26T07:27:54.909Z,99987.66
2024-02-26T07:30:22.125Z,99987.19
2024-02-26T07:32:51.391Z,99994.56
2024-02-26T07:35:18.977Z,99991.13
2024-02-26T07:37:49.739Z,99984.59
2024-02-26T07:40:17.022Z,99995.38
2024-02-26T07:42:44.837Z,99985.53
2024-02-26T07:45:12.254Z,99986.28
2024-02-26T07:47:42.257Z,99985.34
2024-02-26T07:50:10.323Z,99997.31
2024-02-26T07:52:37.522Z,99982.31
2024-02-26T07:55:07.767Z,99994.91
2024-02-26T07:57:35.634Z,100008.34
2024-02-26T08:00:04.752Z,100007.88
2024-02-26T08:02:33.070Z,99994.41
2024-02-26T08:05:00.362Z,99982.72
2024-02-26T08:07:27.703Z,99996.63
2024-02-26T08:09:54.894Z,99980.78
2024-02-26T08:12:22.138Z,99980.78
2024-02-26T08:14:49.326Z,99988.31
2024-02-26T08:18:06.773Z,99982.22
2024-02-26T08:20:42.949Z,99956.81
2024-02-26T08:27:59.605Z,99970.41
2024-02-26T08:30:27.236Z,99974.09
2024-02-26T08:33:19.635Z,99981.56
2024-02-26T08:41:23.748Z,99964.44
2024-02-26T09:04:43.317Z,99942.91
2024-02-26T09:07:12.325Z,99925.72
2024-02-26T09:18:36.234Z,99953.94
2024-02-26T09:21:07.673Z,99942.25
2024-02-26T09:23:36.322Z,99947.44
2024-02-26T09:26:04.053Z,99954.31
2024-02-26T09:28:36.066Z,99937.41
2024-02-26T09:31:03.259Z,99953.06
2024-02-26T09:33:30.592Z,99946.19
2024-02-26T09:35:58.050Z,99947.34
2024-02-26T09:38:25.290Z,99945.66
2024-02-26T09:40:53.893Z,99943.81
2024-02-26T09:43:24.765Z,99965.03
2024-02-26T09:45:54.524Z,99947.88
2024-02-26T09:48:23.862Z,99947.75
2024-02-26T09:50:51.066Z,99947.78
2024-02-26T09:53:19.469Z,99951.34
2024-02-26T09:55:46.543Z,99946.00
2024-02-26T09:58:19.808Z,99953.94
2024-02-26T10:00:54.768Z,99949.94
2024-02-26T10:03:23.387Z,99948.53
2024-02-26T10:05:52.345Z,99955.94
2024-02-26T10:08:23.439Z,99935.72
2024-02-26T10:10:51.729Z,99945.41
2024-02-26T10:13:18.797Z,99937.72
2024-02-26T10:15:45.800Z,99947.19
2024-02-26T10:18:13.116Z,99937.09
2024-02-26T10:20:40.731Z,99940.59
2024-02-26T10:23:08.299Z,99940.06
2024-02-26T10:25:36.023Z,99932.03
2024-02-26T10:28:06.297Z,99934.50
2024-02-26T10:30:37.985Z,99930.16
2024-02-26T10:33:05.467Z,99934.31
2024-02-26T10:35:33.270Z,99936.63
2024-02-26T10:38:00.881Z,99942.25
2024-02-26T10:40:28.046Z,99934.00
2024-02-26T10:42:55.126Z,99937.09
2024-02-26T10:45:24.982Z,99943.09
2024-02-26T10:47:52.455Z,99934.69
2024-02-26T10:51:10.117Z,99933.88
2024-02-26T11:05:14.727Z,99921.44
2024-02-26T11:07:44.861Z,99896.22
2024-02-26T11:13:58.497Z,99897.28
2024-02-26T11:21:12.935Z,99913.19
2024-02-26T11:24:30.397Z,99916.31
2024-02-26T11:27:06.051Z,99924.78
2024-02-26T11:30:02.321Z,99905.63
2024-02-26T11:32:33.655Z,99910.56
2024-02-26T11:35:01.392Z,99910.56
2024-02-26T11:37:29.313Z,99912.00
2024-02-26T11:40:00.012Z,99903.50
2024-02-26T11:42:30.143Z,99892.78
2024-02-26T11:45:04.012Z,99893.38
2024-02-26T11:47:39.056Z,99895.47
2024-02-26T11:50:37.798Z,99874.47
2024-02-26T11:53:27.180Z,99886.03
2024-02-26T11:56:28.395Z,99884.97
2024-02-26T11:59:03.345Z,99873.84
2024-02-26T12:01:50.085Z,99880.63
2024-02-26T12:04:36.901Z,99874.63
2024-02-26T12:07:05.280Z,99869.47
2024-02-26T12:10:24.171Z,99883.50
2024-02-26T12:12:54.094Z,99882.69
2024-02-26T12:15:24.266Z,99874.84
2024-02-26T12:17:52.471Z,99876.09
2024-02-26T12:20:40.689Z,99876.53
2024-02-26T12:23:08.392Z,99892.22
2024-02-26T12:30:57.314Z,99897.56
2024-02-26T12:41:51.221Z,99865.81
2024-02-26T12:48:58.043Z,99866.38
2024-02-26T12:58:49.346Z,99871.88
2024-02-26T13:05:21.372Z,99860.50
2024-02-26T13:11:50.434Z,99869.88
2024-02-26T13:29:08.214Z,99877.88
2024-02-26T13:36:26.487Z,99894.44
2024-02-26T13:38:55.983Z,99846.53
2024-02-26T13:41:27.089Z,99867.19
2024-02-26T13:44:06.655Z,99863.84
2024-02-26T13:46:33.882Z,99864.25
2024-02-26T13:49:01.456Z,99860.31
2024-02-26T13:51:30.580Z,99871.44
2024-02-26T13:54:00.716Z,99872.03
2024-02-26T13:56:35.609Z,99874.66
2024-02-26T13:59:02.738Z,99884.31
2024-02-26T14:01:33.226Z,99883.66
2024-02-26T14:04:03.243Z,99878.06
2024-02-26T14:06:32.379Z,99878.44
2024-02-26T14:09:01.994Z,99872.66
2024-02-26T14:11:35.248Z,99876.53
2024-02-26T14:14:02.592Z,99872.69
2024-02-26T14:16:32.461Z,99883.13
2024-02-26T14:19:00.569Z,99871.53
2024-02-26T14:25:52.893Z,99875.44
2024-02-26T14:28:25.634Z,99874.75
2024-02-26T14:30:56.885Z,99892.03
2024-02-26T14:33:24.345Z,99892.16
2024-02-26T14:35:52.294Z,99899.38
2024-02-26T14:38:19.563Z,99909.19
2024-02-26T14:40:47.268Z,99898.13
2024-02-26T14:43:14.599Z,99879.84
2024-02-26T14:45:41.987Z,99884.22
2024-02-26T14:48:09.854Z,99886.34
2024-02-26T14:58:35.527Z,99907.59
2024-02-26T15:01:02.643Z,99901.44
2024-02-26T15:03:29.875Z,99893.81
2024-02-26T15:05:57.145Z,99886.69
2024-02-26T15:08:24.988Z,99897.19
2024-02-26T15:10:52.376Z,99898.03
2024-02-26T15:13:19.966Z,99891.50
2024-02-26T15:15:48.014Z,99895.44
2024-02-26T15:22:11.754Z,99882.78
2024-02-26T15:28:11.370Z,99905.00
2024-02-26T15:49:46.079Z,99910.31
2024-02-26T15:56:08.988Z,99867.50
2024-02-26T16:03:29.240Z,99882.97
2024-02-26T16:05:56.862Z,99911.00
2024-02-26T16:08:25.205Z,99915.19
2024-02-26T16:10:53.424Z,99926.34
2024-02-26T16:13:21.428Z,99925.22
2024-02-26T16:16:03.820Z,99933.50
2024-02-26T16:18:32.202Z,99923.38
2024-02-26T16:21:00.157Z,99925.41
2024-02-26T16:23:34.636Z,99929.22
2024-02-26T16:26:01.857Z,99920.94
2024-02-26T16:28:29.109Z,99918.63
2024-02-26T16:31:00.492Z,99908.34
2024-02-26T16:33:32.617Z,99902.00
2024-02-26T16:36:27.200Z,99907.00
2024-02-26T16:39:03.084Z,99880.00
2024-02-26T16:41:30.922Z,99921.13
2024-02-26T16:54:40.998Z,99894.44
2024-02-26T16:57:14.805Z,99876.03
2024-02-26T17:10:58.471Z,99884.34
2024-02-26T17:11:26.777Z,99876.88
2024-02-26T17:14:08.071Z,99909.56
2024-02-26T17:16:39.160Z,99872.25
2024-02-26T17:19:10.428Z,99914.06
2024-02-26T17:21:50.453Z,99889.50
2024-02-26T17:24:21.091Z,99898.63
2024-02-26T17:27:09.475Z,99920.69
2024-02-26T17:29:42.129Z,99921.53
2024-02-26T17:32:13.109Z,99910.53
2024-02-26T17:34:53.135Z,99904.25
2024-02-26T17:37:26.308Z,99896.13
2024-02-26T17:39:55.361Z,99897.47
2024-02-26T17:42:26.487Z,99944.28
2024-02-26T17:45:10.244Z,99923.19
2024-02-26T17:47:55.867Z,99935.13
2024-02-26T17:50:40.873Z,99943.78
2024-02-26T17:53:08.180Z,99931.13
2024-02-26T17:56:07.544Z,99937.97
2024-02-26T17:58:35.477Z,99941.75
2024-02-26T18:01:02.607Z,99934.16
2024-02-26T18:03:29.780Z,99943.44
2024-02-26T18:05:57.080Z,99941.78
2024-02-26T18:08:24.301Z,99930.50
2024-02-26T18:10:51.679Z,99935.16
2024-02-26T18:13:27.862Z,99936.13
2024-02-26T18:15:58.617Z,99937.31
2024-02-26T18:18:32.782Z,99935.66
2024-02-26T18:21:02.903Z,99931.00
2024-02-26T18:23:48.403Z,99944.13
2024-02-26T18:26:20.499Z,99945.44
2024-02-26T18:28:48.476Z,99948.25
2024-02-26T18:35:09.274Z,99927.16
2024-02-26T18:39:04.502Z,99908.91
2024-02-26T18:42:19.039Z,99927.66
2024-02-26T18:45:23.768Z,99912.06
2024-02-26T18:47:51.303Z,99935.81
2024-02-26T18:50:19.065Z,99923.84
2024-02-26T18:52:51.120Z,99932.66
2024-02-26T18:55:22.511Z,99926.84
2024-02-26T18:57:55.676Z,99903.59
2024-02-26T19:00:24.003Z,99932.31
2024-02-26T19:02:59.659Z,99931.13
2024-02-26T19:12:36.201Z,99929.47
2024-02-26T19:15:03.914Z,99924.50
2024-02-26T19:21:49.839Z,99916.03
2024-02-26T19:24:18.419Z,99925.97
2024-02-26T19:26:46.083Z,99962.47
2024-02-26T19:29:15.424Z,99936.59
2024-02-26T19:31:43.002Z,99942.72
2024-02-26T19:34:10.184Z,99944.22
2024-02-26T19:41:10.873Z,99942.22
2024-02-26T19:43:38.455Z,99940.06
2024-02-26T19:46:07.102Z,99948.69
2024-02-26T19:48:34.543Z,99945.22
2024-02-26T19:51:01.996Z,99943.56
2024-02-26T19:53:29.049Z,99932.09
2024-02-26T19:55:57.029Z,99930.63
2024-02-26T19:58:24.273Z,99952.84
2024-02-26T20:00:52.507Z,99949.50
2024-02-26T20:03:20.448Z,99943.53
2024-02-26T20:05:47.560Z,99944.38
2024-02-26T20:08:17.146Z,99957.94
2024-02-26T20:10:44.671Z,99954.31
2024-02-26T20:13:12.782Z,99962.41
2024-02-26T20:15:39.891Z,99950.47
2024-02-26T20:18:09.098Z,99944.31
2024-02-26T20:20:36.387Z,99972.69
2024-02-26T20:23:03.527Z,99964.72
2024-02-26T20:25:30.515Z,99959.75
2024-02-26T20:27:57.606Z,99978.16
2024-02-26T20:30:27.243Z,99968.19
2024-02-26T20:32:54.752Z,99982.97
2024-02-26T20:35:22.300Z,99977.66
2024-02-26T20:37:49.652Z,99977.50
2024-02-26T20:40:20.377Z,99969.69
2024-02-26T20:42:48.702Z,99967.84
2024-02-26T20:45:15.929Z,99980.81
2024-02-26T20:47:45.195Z,99983.94
2024-02-26T20:50:12.400Z,99970.00
2024-02-26T20:52:39.778Z,99970.00
2024-02-26T20:55:07.483Z,99960.22
2024-02-26T20:57:34.618Z,99966.00
2024-02-26T21:00:01.882Z,99955.22
2024-02-26T21:02:38.993Z,99955.22
2024-02-26T21:05:07.406Z,99960.88
2024-02-26T21:07:35.182Z,99954.91
2024-02-26T21:10:02.350Z,99958.53
2024-02-26T21:12:31.215Z,99950.38
2024-02-26T21:14:58.414Z,99972.97
2024-02-26T21:17:25.729Z,99959.03
2024-02-26T21:19:53.852Z,99968.94
2024-02-26T21:22:21.167Z,99966.59
2024-02-26T21:24:48.521Z,99967.44
2024-02-26T21:27:15.881Z,99955.50
2024-02-26T21:29:42.958Z,99957.97
2024-02-26T21:32:09.981Z,99973.38
2024-02-26T21:34:37.066Z,99974.38
2024-02-26T21:37:04.333Z,99981.50
2024-02-26T21:39:31.396Z,99976.34
2024-02-26T21:41:58.490Z,99967.56
2024-02-26T21:44:25.503Z,99981.66
2024-02-26T21:46:52.517Z,99970.22
2024-02-26T21:49:19.847Z,99972.22
2024-02-26T21:51:48.425Z,99974.19
2024-02-26T21:54:16.398Z,99974.34
2024-02-26T21:56:45.160Z,99980.13
2024-02-26T21:59:12.610Z,99984.44
2024-02-26T22:01:44.261Z,99988.41
2024-02-26T22:04:14.169Z,99998.84
2024-02-26T22:06:43.245Z,99994.38
2024-02-26T22:09:12.147Z,99997.19
2024-02-26T22:11:39.741Z,100000.00
2024-02-26T22:14:07.052Z,99995.81
2024-02-26T22:16:34.354Z,100003.25
2024-02-26T22:19:06.724Z,100003.91
2024-02-26T22:21:35.806Z,100003.25
2024-02-26T22:24:03.488Z,99998.78
2024-02-26T22:26:30.633Z,100004.22
2024-02-26T22:28:57.616Z,100010.22
2024-02-26T22:31:26.744Z,100005.06
2024-02-26T22:33:54.049Z,100010.38
2024-02-26T22:36:21.830Z,100011.34
2024-02-26T22:38:48.952Z,100017.63
2024-02-26T22:41:18.922Z,100020.28
2024-02-26T22:43:46.411Z,100025.91
2024-02-26T22:46:13.371Z,100030.22
2024-02-26T22:48:40.584Z,100034.53
2024-02-26T22:51:07.723Z,100035.38
2024-02-26T22:53:35.187Z,100043.31
2024-02-26T22:56:02.262Z,100044.81
2024-02-26T22:58:29.343Z,100039.47
2024-02-26T23:00:56.444Z,100043.47
2024-02-26T23:03:23.538Z,100039.78
2024-02-26T23:05:50.530Z,100049.09
2024-02-26T23:08:19.201Z,100056.06
2024-02-26T23:10:46.667Z,100057.88
2024-02-26T23:13:13.842Z,100053.41
2024-02-26T23:15:41.107Z,100051.75
2024-02-26T23:18:08.317Z,100050.06
2024-02-26T23:20:36.937Z,100048.25
2024-02-26T23:23:05.225Z,100036.97
2024-02-26T23:25:32.478Z,100042.28
2024-02-26T23:27:59.801Z,100030.03
2024-02-26T23:30:27.027Z,100037.97
2024-02-26T23:32:54.329Z,100033.50
2024-02-26T23:35:21.649Z,100035.16
2024-02-26T23:37:48.715Z,100034.03
2024-02-26T23:40:16.189Z,100038.63
2024-02-26T23:42:44.244Z,100043.47
2024-02-26T23:45:12.264Z,100048.47
2024-02-26T23:47:39.677Z,100046.31
2024-02-26T23:50:07.321Z,100051.03
2024-02-26T23:52:34.462Z,100043.06
2024-02-26T23:55:01.653Z,100040.47
2024-02-26T23:57:32.284Z,100042.66
2024-02-26T23:59:59.467Z,100042.16
